Aviation Digital Data Service (ADDS)

Output produced by METARs form (1747 UTC 03 June 2015)
found at http://aviationweather.gov/adds/metars/
 
KRIC 031740Z 0318/0418 04008KT 2SM -RA BR OVC007 
     FM040400 02008KT 2SM -DZ BR OVC004 
     FM041500 03008KT 5SM BR OVC008